createdAt,value
2019-04-11T00:01:48.241Z,80.50
2019-04-11T00:07:16.238Z,80.50
2019-04-11T00:12:46.426Z,80.60
2019-04-11T00:18:16.702Z,80.60
2019-04-11T00:23:46.365Z,80.60
2019-04-11T00:29:17.091Z,80.70
2019-04-11T00:34:46.991Z,80.60
2019-04-11T00:40:17.492Z,80.70
2019-04-11T00:45:47.768Z,80.80
2019-04-11T00:51:18.449Z,80.80
2019-04-11T00:56:48.455Z,80.90
2019-04-11T01:02:18.053Z,80.90
2019-04-11T01:07:47.374Z,80.90
2019-04-11T01:13:18.685Z,80.90
2019-04-11T01:18:48.103Z,80.90
2019-04-11T01:24:17.753Z,80.90
2019-04-11T01:29:47.406Z,80.90
2019-04-11T01:35:17.287Z,81.00
2019-04-11T01:40:47.737Z,80.70
2019-04-11T01:46:18.125Z,80.60
2019-04-11T01:51:47.677Z,81.30
2019-04-11T01:57:18.006Z,80.60
2019-04-11T02:02:49.104Z,80.60
2019-04-11T02:08:19.518Z,80.50
2019-04-11T02:13:48.904Z,80.70
2019-04-11T02:19:18.799Z,79.80
2019-04-11T02:24:52.567Z,79.20
2019-04-11T02:30:22.746Z,79.00
2019-04-11T02:35:54.049Z,78.60
2019-04-11T02:41:25.391Z,78.40
2019-04-11T02:47:03.278Z,77.80
2019-04-11T02:52:27.545Z,77.10
2019-04-11T02:57:59.117Z,76.90
2019-04-11T03:03:29.823Z,76.50
2019-04-11T03:08:59.812Z,76.20
2019-04-11T03:14:44.815Z,76.00
2019-04-11T03:20:13.138Z,75.80
2019-04-11T03:25:33.039Z,75.60
2019-04-11T03:31:32.657Z,75.20
2019-04-11T03:37:13.680Z,75.20
2019-04-11T03:42:21.629Z,74.80
2019-04-11T03:47:50.539Z,74.60
2019-04-11T03:53:10.952Z,74.10
2019-04-11T03:58:41.726Z,74.00
2019-04-11T04:04:13.164Z,73.70
2019-04-11T04:09:45.705Z,73.60
2019-04-11T04:15:35.892Z,73.20
2019-04-11T04:21:04.108Z,73.00
2019-04-11T04:26:33.781Z,73.20
2019-04-11T04:32:05.415Z,73.00
2019-04-11T04:37:38.614Z,73.00
2019-04-11T04:43:10.509Z,72.80
2019-04-11T04:48:42.537Z,72.80
2019-04-11T04:54:12.152Z,72.70
2019-04-11T04:59:42.552Z,72.70
2019-04-11T05:05:13.627Z,72.60
2019-04-11T05:10:44.933Z,72.50
2019-04-11T05:16:17.651Z,72.70
2019-04-11T05:21:45.696Z,72.60
2019-04-11T05:27:15.042Z,72.40
2019-04-11T05:32:45.174Z,72.50
2019-04-11T05:38:14.718Z,72.30
2019-04-11T05:43:45.188Z,72.60
2019-04-11T05:49:16.912Z,72.30
2019-04-11T05:54:49.788Z,72.30
2019-04-11T06:00:23.824Z,72.10
2019-04-11T06:05:59.819Z,72.00
2019-04-11T06:11:34.917Z,71.90
2019-04-11T06:17:07.201Z,71.70
2019-04-11T06:22:38.530Z,71.50
2019-04-11T06:28:12.455Z,71.50
2019-04-11T06:33:44.770Z,71.60
2019-04-11T06:39:25.452Z,71.70
2019-04-11T06:44:56.518Z,71.60
2019-04-11T06:50:33.564Z,71.50
2019-04-11T06:56:19.572Z,71.40
2019-04-11T07:01:49.247Z,71.50
2019-04-11T07:07:20.583Z,71.50
2019-04-11T07:12:54.403Z,71.40
2019-04-11T07:18:37.840Z,71.60
2019-04-11T07:24:24.738Z,71.50
2019-04-11T07:30:11.684Z,71.60
2019-04-11T07:35:45.263Z,71.60
2019-04-11T07:41:19.539Z,71.50
2019-04-11T07:47:13.587Z,71.10
2019-04-11T07:52:35.945Z,71.50
2019-04-11T07:58:21.936Z,71.20
2019-04-11T08:03:53.612Z,71.20
2019-04-11T08:09:28.893Z,71.30
2019-04-11T08:15:00.043Z,71.20
2019-04-11T08:20:43.603Z,71.40
2019-04-11T08:26:30.804Z,71.20
2019-04-11T08:32:02.665Z,71.30
2019-04-11T08:37:45.878Z,71.20
2019-04-11T08:43:17.189Z,71.00
2019-04-11T08:48:51.328Z,70.20
2019-04-11T08:54:22.357Z,70.40
2019-04-11T09:00:02.266Z,70.30
2019-04-11T09:05:36.055Z,69.80
2019-04-11T09:11:08.598Z,69.60
2019-04-11T09:16:42.581Z,69.80
2019-04-11T09:22:13.700Z,69.60
2019-04-11T09:27:44.758Z,69.10
2019-04-11T09:33:17.182Z,68.80
2019-04-11T09:38:49.363Z,68.70
2019-04-11T09:44:20.856Z,68.80
2019-04-11T09:49:55.839Z,68.60
2019-04-11T09:55:35.826Z,68.70
2019-04-11T10:01:10.279Z,68.20
2019-04-11T10:06:41.381Z,67.80
2019-04-11T10:12:29.703Z,67.40
2019-04-11T10:18:01.064Z,66.80
2019-04-11T10:23:32.672Z,65.60
2019-04-11T10:29:06.478Z,64.20
2019-04-11T10:34:50.054Z,64.50
2019-04-11T10:40:21.639Z,64.10
2019-04-11T10:46:02.796Z,64.20
2019-04-11T10:51:38.169Z,63.30
2019-04-11T10:57:09.979Z,64.20
2019-04-11T11:02:47.465Z,63.40
2019-04-11T11:08:21.630Z,63.20
2019-04-11T11:13:52.703Z,63.20
2019-04-11T11:19:40.338Z,62.30
2019-04-11T11:25:15.139Z,62.60
2019-04-11T11:30:54.146Z,62.00
2019-04-11T11:36:25.703Z,61.10
2019-04-11T11:42:02.589Z,60.80
2019-04-11T11:47:49.407Z,60.70
2019-04-11T11:53:25.792Z,59.30
2019-04-11T11:59:09.126Z,59.40
2019-04-11T12:04:56.082Z,60.10
2019-04-11T12:10:32.505Z,59.60
2019-04-11T12:16:21.298Z,58.70
2019-04-11T12:21:51.509Z,58.30
2019-04-11T12:27:26.826Z,58.10
2019-04-11T12:32:59.224Z,59.10
2019-04-11T12:38:48.338Z,59.50
2019-04-11T12:44:21.870Z,59.60
2019-04-11T12:49:53.476Z,59.70
2019-04-11T12:55:24.760Z,59.90
2019-04-11T13:01:02.590Z,60.00
2019-04-11T13:06:36.874Z,59.50
2019-04-11T13:12:08.161Z,59.70
2019-04-11T13:17:39.299Z,59.30
2019-04-11T13:23:13.292Z,58.70
2019-04-11T13:28:44.438Z,58.60
2019-04-11T13:34:15.703Z,58.60
2019-04-11T13:39:46.769Z,58.10
2019-04-11T13:45:16.277Z,57.80
2019-04-11T13:50:46.109Z,57.60
2019-04-11T13:56:15.771Z,57.70
2019-04-11T14:01:47.000Z,57.30
2019-04-11T14:07:23.438Z,57.50
2019-04-11T14:12:53.921Z,56.80
2019-04-11T14:18:34.193Z,57.60
2019-04-11T14:24:11.686Z,57.00
2019-04-11T14:29:43.324Z,56.60
2019-04-11T14:35:29.818Z,57.20
2019-04-11T14:41:11.879Z,57.70
2019-04-11T14:46:58.270Z,57.70
2019-04-11T14:52:31.777Z,57.60
2019-04-11T14:58:23.559Z,57.20
2019-04-11T15:03:57.501Z,57.40
2019-04-11T15:09:46.780Z,57.40
2019-04-11T15:15:26.552Z,57.50
2019-04-11T15:21:13.787Z,57.70
2019-04-11T15:26:51.064Z,57.70
2019-04-11T15:32:24.933Z,58.00
2019-04-11T15:38:12.338Z,58.20
2019-04-11T15:43:49.700Z,58.10
2019-04-11T15:49:29.603Z,59.10
2019-04-11T15:55:10.837Z,58.50
2019-04-11T16:00:44.943Z,58.50
2019-04-11T16:06:34.773Z,58.80
2019-04-11T16:12:05.420Z,58.70
2019-04-11T16:17:45.294Z,58.70
2019-04-11T16:23:19.211Z,58.70
2019-04-11T16:28:56.083Z,58.80
2019-04-11T16:34:27.081Z,58.90
2019-04-11T16:40:14.157Z,59.20
2019-04-11T16:45:54.651Z,59.40
2019-04-11T16:51:30.737Z,60.40
2019-04-11T16:56:54.107Z,60.60
2019-04-11T17:02:24.257Z,60.80
2019-04-11T17:07:56.728Z,61.00
2019-04-11T17:13:27.322Z,61.20
2019-04-11T17:18:57.099Z,61.30
2019-04-11T17:24:37.480Z,61.30
2019-04-11T17:30:08.571Z,61.30
2019-04-11T17:35:38.126Z,61.20
2019-04-11T17:41:10.896Z,61.30
2019-04-11T17:46:39.087Z,61.30
2019-04-11T17:52:09.071Z,61.40
2019-04-11T17:57:38.692Z,61.40
2019-04-11T18:03:11.742Z,61.40
2019-04-11T18:08:39.982Z,61.30
2019-04-11T18:14:09.488Z,61.30
2019-04-11T18:19:39.299Z,61.40
2019-04-11T18:25:09.071Z,61.40
2019-04-11T18:30:38.546Z,60.50
2019-04-11T18:36:08.245Z,60.40
2019-04-11T18:41:40.008Z,60.00
2019-04-11T18:47:09.915Z,59.70
2019-04-11T18:52:40.262Z,59.60
2019-04-11T18:58:09.978Z,59.50
2019-04-11T19:03:41.376Z,59.50
2019-04-11T19:09:14.149Z,59.50
2019-04-11T19:14:46.060Z,58.80
2019-04-11T19:20:18.887Z,58.90
2019-04-11T19:25:47.446Z,58.20
2019-04-11T19:31:16.874Z,58.00
2019-04-11T19:36:46.453Z,57.80
2019-04-11T19:42:19.542Z,57.60
2019-04-11T19:47:49.506Z,57.30
2019-04-11T19:53:18.222Z,57.40
2019-04-11T19:58:47.645Z,57.20
2019-04-11T20:04:17.131Z,57.30
2019-04-11T20:09:46.758Z,57.30
2019-04-11T20:15:16.161Z,57.20
2019-04-11T20:20:45.651Z,57.80
2019-04-11T20:26:15.027Z,57.20
2019-04-11T20:31:47.037Z,57.20
2019-04-11T20:37:16.435Z,57.30
2019-04-11T20:42:45.822Z,57.10
2019-04-11T20:48:15.245Z,57.40
2019-04-11T20:53:44.843Z,57.40
2019-04-11T20:59:14.372Z,57.30
2019-04-11T21:04:44.078Z,57.40
2019-04-11T21:10:13.773Z,57.60
2019-04-11T21:15:45.399Z,57.40
2019-04-11T21:21:14.950Z,57.50
2019-04-11T21:26:44.545Z,57.60
2019-04-11T21:32:14.171Z,57.50
2019-04-11T21:37:43.604Z,57.80
2019-04-11T21:43:13.176Z,57.90
2019-04-11T21:48:43.982Z,57.90
2019-04-11T21:54:15.115Z,58.00
2019-04-11T21:59:44.790Z,58.10
2019-04-11T22:05:14.469Z,58.30
2019-04-11T22:10:44.330Z,58.30
2019-04-11T22:16:14.457Z,58.40
2019-04-11T22:21:45.386Z,58.40
2019-04-11T22:27:15.561Z,58.60
2019-04-11T22:32:46.732Z,58.70
2019-04-11T22:38:16.166Z,58.80
2019-04-11T22:43:45.731Z,59.00
2019-04-11T22:49:15.157Z,59.10
2019-04-11T22:54:44.858Z,59.30
2019-04-11T23:00:15.736Z,59.30
2019-04-11T23:05:46.940Z,59.60
2019-04-11T23:11:16.431Z,59.80
2019-04-11T23:16:45.855Z,60.00
2019-04-11T23:22:15.307Z,60.30
2019-04-11T23:27:44.716Z,60.60
2019-04-11T23:33:24.253Z,61.10
2019-04-11T23:38:55.723Z,61.30
2019-04-11T23:44:26.069Z,61.60
2019-04-11T23:49:56.154Z,61.90
2019-04-11T23:55:27.867Z,62.20
